createdAt,value
2019-04-06T00:03:20.588Z,3.13
2019-04-06T00:07:24.770Z,5.77
2019-04-06T00:11:28.997Z,2.57
2019-04-06T00:15:33.246Z,3.53
2019-04-06T00:19:37.494Z,2.90
2019-04-06T00:23:41.662Z,2.53
2019-04-06T00:27:45.922Z,2.63
2019-04-06T00:32:07.855Z,2.20
2019-04-06T00:36:12.093Z,3.27
2019-04-06T00:40:16.365Z,3.37
2019-04-06T00:44:20.677Z,4.07
2019-04-06T00:48:25.052Z,3.70
2019-04-06T00:52:29.355Z,3.13
2019-04-06T00:56:33.624Z,2.63
2019-04-06T01:00:38.163Z,2.67
2019-04-06T01:04:42.831Z,2.33
2019-04-06T01:08:47.039Z,2.37
2019-04-06T01:12:51.526Z,2.13
2019-04-06T01:16:55.834Z,3.17
2019-04-06T01:21:00.087Z,2.80
2019-04-06T01:25:04.913Z,2.30
2019-04-06T01:29:09.169Z,3.30
2019-04-06T01:33:13.402Z,1.93
2019-04-06T01:37:17.601Z,1.67
2019-04-06T01:41:21.855Z,2.50
2019-04-06T01:45:26.057Z,4.57
2019-04-06T01:49:30.284Z,2.77
2019-04-06T01:53:34.508Z,2.10
2019-04-06T01:57:38.994Z,2.33
2019-04-06T02:01:51.519Z,3.97
2019-04-06T02:05:55.774Z,1.90
2019-04-06T02:10:00.020Z,2.13
2019-04-06T02:14:04.450Z,2.97
2019-04-06T02:18:09.000Z,2.10
2019-04-06T02:22:13.219Z,1.63
2019-04-06T02:26:29.146Z,1.10
2019-04-06T02:30:33.393Z,1.20
2019-04-06T02:34:55.225Z,1.17
2019-04-06T02:39:18.545Z,1.43
2019-04-06T02:43:28.500Z,2.07
2019-04-06T02:47:32.780Z,1.50
2019-04-06T02:51:36.989Z,1.47
2019-04-06T02:55:42.849Z,1.77
2019-04-06T02:59:47.129Z,1.67
2019-04-06T03:03:51.608Z,2.67
2019-04-06T03:07:55.837Z,1.83
2019-04-06T03:12:00.076Z,2.50
2019-04-06T03:16:04.410Z,2.07
2019-04-06T03:20:08.869Z,2.17
2019-04-06T03:24:13.046Z,1.97
2019-04-06T03:28:17.427Z,2.63
2019-04-06T03:32:21.709Z,1.83
2019-04-06T03:36:25.926Z,2.57
2019-04-06T03:40:30.194Z,2.97
2019-04-06T03:44:34.427Z,1.93
2019-04-06T03:48:39.053Z,1.70
2019-04-06T03:52:43.326Z,2.40
2019-04-06T03:56:47.584Z,2.67
2019-04-06T04:00:52.168Z,2.37
2019-04-06T04:04:56.437Z,4.07
2019-04-06T04:09:00.769Z,3.60
2019-04-06T04:13:05.624Z,3.97
2019-04-06T04:17:09.880Z,4.70
2019-04-06T04:21:14.134Z,6.00
2019-04-06T04:25:18.384Z,4.97
2019-04-06T04:29:22.636Z,5.47
2019-04-06T04:33:26.844Z,5.43
2019-04-06T04:37:31.097Z,4.37
2019-04-06T04:41:35.675Z,5.67
2019-04-06T04:45:40.306Z,3.73
2019-04-06T04:49:44.524Z,5.40
2019-04-06T04:53:48.785Z,6.33
2019-04-06T04:57:53.331Z,7.63
2019-04-06T05:01:57.538Z,5.87
2019-04-06T05:06:01.871Z,5.97
2019-04-06T05:10:06.947Z,4.63
2019-04-06T05:14:47.259Z,4.43
2019-04-06T05:18:51.900Z,5.13
2019-04-06T05:22:56.168Z,5.10
2019-04-06T05:27:00.360Z,5.17
2019-04-06T05:31:04.811Z,4.43
2019-04-06T05:35:09.146Z,3.83
2019-04-06T05:39:13.401Z,4.80
2019-04-06T05:43:17.819Z,4.67
2019-04-06T05:47:22.166Z,4.10
2019-04-06T05:51:27.295Z,4.13
2019-04-06T05:55:31.533Z,6.87
2019-04-06T05:59:35.820Z,5.67
2019-04-06T06:03:41.252Z,4.17
2019-04-06T06:07:45.847Z,3.70
2019-04-06T06:11:50.088Z,5.43
2019-04-06T06:15:54.382Z,4.93
2019-04-06T06:19:58.633Z,5.00
2019-04-06T06:24:02.961Z,3.67
2019-04-06T06:28:14.411Z,3.43
2019-04-06T06:32:13.102Z,4.23
2019-04-06T06:36:17.301Z,5.57
2019-04-06T06:40:21.994Z,3.77
2019-04-06T06:44:26.559Z,4.50
2019-04-06T06:48:30.886Z,2.90
2019-04-06T06:52:35.090Z,3.37
2019-04-06T06:56:39.342Z,4.30
2019-04-06T07:00:44.350Z,2.97
2019-04-06T07:04:49.209Z,3.03
2019-04-06T07:08:53.639Z,3.57
2019-04-06T07:12:57.841Z,3.33
2019-04-06T07:17:02.247Z,2.30
2019-04-06T07:21:06.556Z,3.17
2019-04-06T07:25:12.236Z,3.13
2019-04-06T07:29:16.883Z,2.53
2019-04-06T07:33:21.198Z,2.27
2019-04-06T07:37:25.579Z,2.50
2019-04-06T07:41:29.886Z,2.37
2019-04-06T07:45:34.181Z,2.40
2019-04-06T07:49:38.903Z,3.17
2019-04-06T07:53:43.211Z,2.80
2019-04-06T07:57:47.564Z,2.80
2019-04-06T08:01:51.812Z,3.27
2019-04-06T08:05:55.973Z,2.60
2019-04-06T08:10:00.180Z,2.30
2019-04-06T08:14:04.843Z,2.63
2019-04-06T08:18:09.303Z,2.27
2019-04-06T08:22:13.453Z,2.10
2019-04-06T08:26:17.683Z,1.63
2019-04-06T08:30:21.899Z,2.83
2019-04-06T08:34:26.135Z,2.77
2019-04-06T08:38:30.429Z,1.57
2019-04-06T08:42:34.989Z,3.27
2019-04-06T08:46:39.250Z,2.83
2019-04-06T08:50:43.481Z,2.13
2019-04-06T08:54:48.038Z,2.10
2019-04-06T08:58:52.242Z,1.83
2019-04-06T09:02:56.904Z,2.80
2019-04-06T09:07:01.089Z,2.20
2019-04-06T09:11:06.307Z,1.30
2019-04-06T09:15:11.233Z,1.03
2019-04-06T09:19:16.017Z,1.10
2019-04-06T09:23:20.256Z,1.87
2019-04-06T09:27:24.484Z,1.80
2019-04-06T09:31:28.797Z,1.37
2019-04-06T09:35:33.020Z,2.27
2019-04-06T09:39:37.284Z,1.93
2019-04-06T09:43:41.453Z,4.07
2019-04-06T09:47:54.563Z,1.80
2019-04-06T09:52:30.161Z,1.30
2019-04-06T09:57:05.503Z,0.70
2019-04-06T10:01:38.067Z,0.87
2019-04-06T10:05:45.453Z,1.07
2019-04-06T10:10:06.167Z,1.10
2019-04-06T10:14:32.689Z,0.83
2019-04-06T10:18:51.021Z,1.43
2019-04-06T10:23:20.758Z,3.33
2019-04-06T10:27:45.224Z,1.20
2019-04-06T10:32:13.103Z,1.43
2019-04-06T10:36:36.393Z,1.93
2019-04-06T10:40:54.751Z,1.20
2019-04-06T10:45:23.767Z,2.47
2019-04-06T10:49:46.050Z,0.80
2019-04-06T10:54:00.162Z,0.90
2019-04-06T10:58:41.573Z,1.07
2019-04-06T11:03:02.904Z,1.40
2019-04-06T11:07:24.863Z,2.50
2019-04-06T11:11:56.416Z,1.77
2019-04-06T11:16:18.742Z,1.40
2019-04-06T11:20:29.658Z,1.40
2019-04-06T11:24:53.358Z,1.20
2019-04-06T11:29:31.739Z,1.60
2019-04-06T11:34:04.049Z,1.97
2019-04-06T11:38:29.955Z,1.20
2019-04-06T11:42:43.780Z,1.30
2019-04-06T11:47:06.674Z,1.50
2019-04-06T11:51:28.797Z,1.47
2019-04-06T11:55:39.848Z,1.60
2019-04-06T12:00:01.849Z,1.93
2019-04-06T12:04:18.738Z,3.13
2019-04-06T12:08:30.809Z,1.07
2019-04-06T12:12:57.022Z,1.27
2019-04-06T12:17:16.730Z,1.53
2019-04-06T12:21:44.514Z,1.37
2019-04-06T12:26:07.051Z,1.70
2019-04-06T12:30:37.437Z,0.87
2019-04-06T12:35:04.174Z,1.20
2019-04-06T12:39:34.264Z,1.07
2019-04-06T12:43:53.296Z,1.20
2019-04-06T12:48:19.678Z,1.77
2019-04-06T12:52:41.933Z,2.03
2019-04-06T12:56:57.952Z,1.20
2019-04-06T13:01:39.450Z,1.30
2019-04-06T13:05:53.121Z,1.20
2019-04-06T13:10:15.286Z,1.90
2019-04-06T13:14:41.329Z,1.93
2019-04-06T13:18:55.622Z,1.00
2019-04-06T13:23:07.078Z,1.20
2019-04-06T13:27:26.631Z,1.07
2019-04-06T13:32:02.069Z,0.80
2019-04-06T13:36:37.493Z,1.10
2019-04-06T13:41:06.700Z,1.10
2019-04-06T13:45:23.537Z,0.80
2019-04-06T13:49:44.896Z,0.80
2019-04-06T13:53:55.857Z,0.70
2019-04-06T13:58:08.151Z,0.80
2019-04-06T14:02:19.836Z,1.00
2019-04-06T14:06:34.384Z,1.93
2019-04-06T14:11:00.379Z,0.90
2019-04-06T14:15:22.666Z,0.50
2019-04-06T14:19:49.256Z,0.93
2019-04-06T14:24:18.310Z,1.23
2019-04-06T14:28:47.488Z,1.43
2019-04-06T14:33:09.596Z,1.20
2019-04-06T14:37:30.870Z,0.77
2019-04-06T14:41:57.600Z,0.80
2019-04-06T14:46:32.010Z,2.00
2019-04-06T14:51:07.729Z,0.77
2019-04-06T14:55:34.456Z,1.00
2019-04-06T14:59:47.545Z,0.50
2019-04-06T15:04:13.980Z,0.50
2019-04-06T15:08:32.923Z,1.03
2019-04-06T15:12:56.611Z,1.47
2019-04-06T15:17:28.949Z,0.60
2019-04-06T15:21:55.061Z,0.60
2019-04-06T15:26:05.474Z,0.60
2019-04-06T15:30:41.867Z,1.57
2019-04-06T15:35:04.151Z,0.80
2019-04-06T15:39:15.317Z,1.10
2019-04-06T15:43:38.705Z,0.73
2019-04-06T15:48:03.640Z,0.60
2019-04-06T15:52:26.233Z,0.70
2019-04-06T15:56:52.876Z,1.60
2019-04-06T16:01:16.609Z,1.23
2019-04-06T16:05:32.993Z,0.73
2019-04-06T16:10:01.312Z,1.07
2019-04-06T16:14:26.037Z,0.50
2019-04-06T16:18:40.611Z,1.03
2019-04-06T16:22:55.677Z,0.90
2019-04-06T16:27:22.122Z,1.03
2019-04-06T16:31:44.570Z,0.80
2019-04-06T16:35:57.336Z,0.80
2019-04-06T16:40:29.144Z,1.23
2019-04-06T16:44:50.921Z,0.70
2019-04-06T16:49:32.550Z,0.70
2019-04-06T16:53:45.990Z,0.70
2019-04-06T16:58:15.451Z,1.30
2019-04-06T17:02:33.534Z,1.07
2019-04-06T17:06:48.283Z,0.70
2019-04-06T17:11:11.835Z,1.30
2019-04-06T17:15:29.916Z,0.87
2019-04-06T17:19:53.276Z,0.70
2019-04-06T17:24:27.078Z,1.00
2019-04-06T17:28:47.465Z,1.17
2019-04-06T17:33:12.689Z,1.83
2019-04-06T17:37:41.901Z,1.33
2019-04-06T17:42:11.303Z,1.30
2019-04-06T17:46:40.570Z,1.30
2019-04-06T17:51:00.960Z,1.20
2019-04-06T17:55:33.984Z,1.30
2019-04-06T17:59:59.006Z,1.00
2019-04-06T18:04:25.032Z,1.37
2019-04-06T18:08:39.623Z,1.50
2019-04-06T18:12:53.411Z,1.73
2019-04-06T18:16:57.637Z,2.00
2019-04-06T18:21:01.842Z,2.50
2019-04-06T18:25:08.138Z,1.53
2019-04-06T18:29:12.364Z,1.63
2019-04-06T18:33:20.411Z,2.83
2019-04-06T18:37:43.608Z,2.63
2019-04-06T18:41:47.791Z,2.43
2019-04-06T18:45:52.131Z,3.00
2019-04-06T18:49:56.281Z,3.33
2019-04-06T18:54:00.575Z,3.40
2019-04-06T18:58:11.737Z,4.40
2019-04-06T19:02:11.234Z,2.47
2019-04-06T19:06:16.229Z,2.17
2019-04-06T19:10:20.886Z,2.40
2019-04-06T19:14:25.917Z,2.53
2019-04-06T19:18:30.727Z,2.97
2019-04-06T19:22:35.094Z,2.20
2019-04-06T19:26:39.248Z,3.10
2019-04-06T19:30:44.432Z,2.50
2019-04-06T19:34:48.779Z,3.60
2019-04-06T19:38:53.057Z,4.63
2019-04-06T19:42:57.450Z,2.27
2019-04-06T19:47:01.649Z,3.23
2019-04-06T19:51:06.122Z,3.03
2019-04-06T19:55:10.548Z,2.60
2019-04-06T19:59:14.742Z,3.77
2019-04-06T20:03:19.147Z,2.73
2019-04-06T20:07:23.519Z,3.43
2019-04-06T20:11:28.220Z,2.93
2019-04-06T20:15:33.547Z,2.93
2019-04-06T20:19:38.043Z,5.67
2019-04-06T20:23:42.876Z,3.40
2019-04-06T20:27:47.518Z,3.33
2019-04-06T20:31:51.940Z,3.93
2019-04-06T20:35:57.018Z,3.83
2019-04-06T20:40:01.856Z,4.30
2019-04-06T20:44:06.400Z,4.80
2019-04-06T20:48:10.625Z,3.97
2019-04-06T20:52:15.088Z,6.10
2019-04-06T20:56:19.685Z,5.83
2019-04-06T21:00:24.051Z,4.10
2019-04-06T21:04:28.278Z,3.90
2019-04-06T21:08:32.474Z,5.40
2019-04-06T21:12:36.956Z,4.60
2019-04-06T21:16:41.155Z,6.17
2019-04-06T21:20:45.404Z,4.97
2019-04-06T21:24:49.605Z,5.73
2019-04-06T21:28:53.830Z,7.07
2019-04-06T21:32:58.011Z,5.80
2019-04-06T21:37:02.248Z,4.97
2019-04-06T21:41:07.017Z,4.13
2019-04-06T21:45:13.091Z,4.33
2019-04-06T21:49:17.859Z,5.53
2019-04-06T21:53:22.243Z,5.33
2019-04-06T21:57:26.422Z,5.93
2019-04-06T22:01:32.026Z,5.10
2019-04-06T22:05:36.343Z,7.47
2019-04-06T22:09:40.482Z,4.87
2019-04-06T22:13:45.279Z,6.90
2019-04-06T22:17:50.525Z,5.47
2019-04-06T22:21:55.397Z,5.57
2019-04-06T22:26:00.406Z,6.17
2019-04-06T22:30:08.002Z,9.23
2019-04-06T22:34:12.574Z,6.43
2019-04-06T22:38:17.082Z,7.67
2019-04-06T22:42:21.412Z,8.80
2019-04-06T22:46:26.229Z,7.37
2019-04-06T22:50:30.548Z,7.47
2019-04-06T22:54:34.819Z,8.17
2019-04-06T22:58:39.033Z,5.77
2019-04-06T23:03:14.698Z,7.10
2019-04-06T23:07:21.761Z,8.97
2019-04-06T23:11:26.062Z,6.33
2019-04-06T23:15:30.261Z,7.20
2019-04-06T23:19:34.508Z,9.57
2019-04-06T23:23:38.733Z,11.17
2019-04-06T23:27:43.040Z,10.27
2019-04-06T23:31:47.187Z,8.50
2019-04-06T23:35:51.739Z,7.90
2019-04-06T23:39:56.205Z,8.10
2019-04-06T23:44:00.902Z,8.63
2019-04-06T23:48:05.965Z,9.63
2019-04-06T23:52:10.448Z,9.60
2019-04-06T23:56:15.160Z,8.23
